Time;durP1;ratioP1;P1;durP2;ratioP2;P2;SDS_P1;SDS_P2;PMS_P1;PMS_P2;Temp;Humidity;BMP_temperature;BMP_pressure;BME280_temperature;BME280_humidity;BME280_pressure;Samples;Min_cycle;Max_cycle;Signal;HPM_P1;HPM_P2
2021/12/28 04:02:11;;;;;;;138.13;39.35;;;7.10;99.90;;;;;;5214237;23;20419;-82
2021/12/28 04:04:36;;;;;;;137.48;40.15;;;7.20;99.90;;;;;;4978408;28;20047;-81
2021/12/28 04:07:06;;;;;;;123.07;39.33;;;7.10;99.90;;;;;;4978699;28;20047;-82
2021/12/28 04:12:17;;;;;;;119.40;37.55;;;7.10;99.90;;;;;;4996213;28;20038;-82
2021/12/28 04:14:42;;;;;;;128.63;39.33;;;7.10;99.90;;;;;;4978759;28;20042;-82
2021/12/28 04:17:08;;;;;;;107.15;36.83;;;7.10;99.90;;;;;;4978454;28;20550;-81
2021/12/28 04:19:33;;;;;;;112.05;37.10;;;7.10;99.90;;;;;;4978187;28;20045;-83
2021/12/28 04:21:59;;;;;;;116.22;36.97;;;7.10;99.90;;;;;;4995649;28;20400;-82
2021/12/28 04:24:25;;;;;;;97.65;34.65;;;7.10;99.90;;;;;;4978126;28;20097;-82
2021/12/28 04:26:51;;;;;;;98.30;33.33;;;7.10;99.90;;;;;;4996210;28;20488;-83
2021/12/28 04:29:17;;;;;;;106.25;33.92;;;7.10;99.90;;;;;;4996146;28;20044;-83
2021/12/28 04:31:42;;;;;;;99.57;33.33;;;7.10;99.90;;;;;;4977867;28;20034;-81
2021/12/28 04:34:08;;;;;;;99.55;33.63;;;7.10;99.90;;;;;;4995847;28;20097;-82
2021/12/28 04:36:34;;;;;;;98.63;32.58;;;7.10;99.90;;;;;;4978192;28;20403;-83
2021/12/28 04:39:00;;;;;;;106.35;32.67;;;7.10;99.90;;;;;;4995836;28;20042;-81
2021/12/28 04:41:25;;;;;;;97.50;31.58;;;7.00;99.90;;;;;;4977670;28;20128;-84
2021/12/28 04:43:51;;;;;;;82.25;29.98;;;7.00;99.90;;;;;;4977796;28;20045;-82
2021/12/28 04:46:17;;;;;;;87.53;29.95;;;7.00;99.90;;;;;;4961715;28;20031;-84
2021/12/28 04:48:42;;;;;;;89.38;30.60;;;7.00;99.90;;;;;;4995819;28;20037;-84
2021/12/28 04:51:08;;;;;;;87.05;30.42;;;7.00;99.90;;;;;;4995450;28;20034;-82
2021/12/28 04:53:34;;;;;;;89.18;30.85;;;7.00;99.90;;;;;;4962591;28;20057;-82
2021/12/28 04:56:00;;;;;;;79.20;29.15;;;7.00;99.90;;;;;;4977517;28;20101;-84
2021/12/28 04:58:26;;;;;;;81.65;30.02;;;7.10;99.90;;;;;;4977722;28;20376;-81
2021/12/28 05:00:53;;;;;;;82.57;28.17;;;7.10;99.90;;;;;;4977428;28;20053;-81
2021/12/28 05:03:20;;;;;;;90.78;30.05;;;7.10;99.90;;;;;;4977730;28;20188;-83
2021/12/28 05:05:50;;;;;;;85.32;31.40;;;7.00;99.90;;;;;;4977228;28;20050;-83
2021/12/28 05:08:17;;;;;;;90.97;32.72;;;7.10;99.90;;;;;;4977651;28;20042;-83
2021/12/28 05:10:43;;;;;;;92.93;31.33;;;7.00;99.90;;;;;;4977440;28;20057;-84
2021/12/28 05:13:09;;;;;;;90.30;32.38;;;7.00;99.90;;;;;;4977278;28;20050;-84
2021/12/28 05:15:35;;;;;;;89.43;31.55;;;7.00;99.90;;;;;;4977015;28;20515;-83
2021/12/28 05:18:01;;;;;;;86.63;33.17;;;7.00;99.90;;;;;;4977124;28;20092;-83
2021/12/28 05:20:27;;;;;;;88.28;31.83;;;6.90;99.90;;;;;;4976797;28;20542;-82
2021/12/28 05:22:53;;;;;;;80.53;29.58;;;7.00;99.90;;;;;;4977434;28;20457;-83
2021/12/28 05:25:19;;;;;;;88.35;31.77;;;7.00;99.90;;;;;;4994726;28;20117;-83
2021/12/28 05:27:44;;;;;;;84.85;31.83;;;6.90;99.90;;;;;;4977026;28;20124;-83
2021/12/28 05:30:11;;;;;;;85.78;32.25;;;6.90;99.90;;;;;;4994700;28;20042;-82
2021/12/28 05:32:37;;;;;;;75.80;30.98;;;6.90;99.90;;;;;;4977136;28;20042;-83
2021/12/28 05:35:05;;;;;;;71.68;28.65;;;6.80;99.90;;;;;;4961372;28;20100;-85
2021/12/28 05:37:31;;;;;;;71.47;30.02;;;6.80;99.90;;;;;;4960820;28;20508;-84
2021/12/28 05:39:57;;;;;;;81.00;30.42;;;6.90;99.90;;;;;;4976835;28;20074;-83
2021/12/28 05:42:22;;;;;;;79.70;32.40;;;6.90;99.90;;;;;;4977277;28;20038;-86
2021/12/28 05:44:48;;;;;;;86.88;30.95;;;6.80;99.90;;;;;;4976883;28;20488;-85
2021/12/28 05:47:14;;;;;;;87.30;31.90;;;6.90;99.90;;;;;;4961245;28;20073;-80
2021/12/28 05:49:40;;;;;;;80.57;31.20;;;6.90;99.90;;;;;;4993916;28;20069;-84
2021/12/28 05:52:06;;;;;;;75.78;31.45;;;6.80;99.90;;;;;;4992903;28;20034;-85
2021/12/28 05:54:32;;;;;;;84.47;31.27;;;6.70;99.90;;;;;;4976721;28;20046;-85
2021/12/28 05:56:58;;;;;;;78.32;29.88;;;6.80;99.90;;;;;;4960986;28;20046;-85
2021/12/28 05:59:23;;;;;;;69.47;29.15;;;6.70;99.90;;;;;;4994504;28;20061;-85
2021/12/28 06:01:49;;;;;;;71.60;28.25;;;6.70;99.90;;;;;;4994039;28;20053;-83
2021/12/28 06:04:14;;;;;;;76.63;29.85;;;6.70;99.90;;;;;;4977304;28;20089;-84
2021/12/28 06:06:40;;;;;;;75.05;30.48;;;6.70;99.90;;;;;;4995179;28;20086;-84
2021/12/28 06:09:06;;;;;;;74.82;28.35;;;6.70;99.90;;;;;;4977193;28;20074;-82
2021/12/28 06:11:32;;;;;;;76.28;27.33;;;6.70;99.90;;;;;;4976781;28;20046;-85
2021/12/28 06:13:58;;;;;;;67.95;27.15;;;6.70;99.90;;;;;;4994464;28;20041;-85
2021/12/28 06:16:23;;;;;;;63.20;26.67;;;6.70;99.90;;;;;;4960569;28;20042;-83
2021/12/28 06:18:49;;;;;;;67.38;27.98;;;6.70;99.90;;;;;;4976540;28;20074;-84
2021/12/28 06:21:14;;;;;;;59.53;25.27;;;6.70;99.90;;;;;;4994017;28;20073;-85
2021/12/28 06:23:40;;;;;;;65.45;26.88;;;6.70;99.90;;;;;;4960506;28;20054;-86
2021/12/28 06:26:06;;;;;;;58.70;23.98;;;6.70;99.90;;;;;;4976644;28;20049;-83
2021/12/28 06:28:31;;;;;;;54.15;21.73;;;6.70;99.90;;;;;;4976713;28;20038;-84
2021/12/28 06:30:58;;;;;;;59.42;23.33;;;6.70;99.90;;;;;;4976949;28;20046;-83
2021/12/28 06:33:24;;;;;;;55.70;22.42;;;6.70;99.90;;;;;;4976751;28;20581;-85
2021/12/28 06:35:51;;;;;;;60.22;23.30;;;6.70;99.90;;;;;;4976277;28;20047;-84
2021/12/28 06:38:17;;;;;;;49.38;21.13;;;6.70;99.90;;;;;;4976533;28;20046;-84
2021/12/28 06:40:43;;;;;;;46.10;20.35;;;6.70;99.90;;;;;;4976234;28;20087;-85
2021/12/28 06:43:09;;;;;;;49.03;21.45;;;6.80;99.90;;;;;;4976284;28;20042;-86
2021/12/28 06:45:35;;;;;;;52.45;21.50;;;6.80;99.90;;;;;;4961325;28;20503;-85
2021/12/28 06:48:01;;;;;;;44.42;20.20;;;6.80;99.90;;;;;;4995115;28;20488;-86
2021/12/28 06:50:27;;;;;;;47.25;18.98;;;6.80;99.90;;;;;;4980257;28;20038;-83
2021/12/28 06:52:53;;;;;;;46.40;19.02;;;6.80;99.90;;;;;;4998164;28;20419;-86
2021/12/28 06:55:18;;;;;;;40.72;18.60;;;6.80;99.90;;;;;;4980160;28;20060;-83
2021/12/28 06:57:44;;;;;;;45.05;17.73;;;6.80;99.90;;;;;;4980168;28;20046;-83
2021/12/28 07:00:13;;;;;;;44.58;18.17;;;6.80;99.90;;;;;;4980140;28;20042;-85
2021/12/28 07:02:39;;;;;;;43.40;17.40;;;6.70;99.90;;;;;;4979997;28;20052;-84
2021/12/28 07:05:06;;;;;;;42.50;16.63;;;6.70;99.90;;;;;;4964218;28;20046;-84
2021/12/28 07:07:32;;;;;;;46.20;17.10;;;6.70;99.90;;;;;;4980169;28;20042;-85
2021/12/28 07:09:57;;;;;;;45.50;16.70;;;6.70;99.90;;;;;;4979878;28;20416;-83
2021/12/28 07:12:23;;;;;;;44.03;16.02;;;6.70;99.90;;;;;;4980864;28;20476;-86
2021/12/28 07:14:49;;;;;;;43.75;16.38;;;6.70;99.90;;;;;;4980300;28;20046;-84
2021/12/28 07:17:14;;;;;;;42.10;16.30;;;6.70;99.90;;;;;;4979838;28;20090;-85
2021/12/28 07:19:40;;;;;;;38.60;16.13;;;6.70;99.90;;;;;;4979885;28;20045;-80
2021/12/28 07:22:06;;;;;;;38.65;15.98;;;6.70;99.90;;;;;;4963641;28;20038;-83
2021/12/28 07:24:32;;;;;;;44.28;16.40;;;6.80;99.90;;;;;;4996784;28;20055;-83
2021/12/28 07:26:58;;;;;;;38.47;15.23;;;6.70;99.90;;;;;;4979352;28;20074;-84
2021/12/28 07:29:23;;;;;;;44.45;15.98;;;6.70;99.90;;;;;;4997328;28;20092;-83
2021/12/28 07:31:50;;;;;;;45.20;15.85;;;6.70;99.90;;;;;;4963753;28;20079;-83
2021/12/28 07:34:17;;;;;;;44.38;16.08;;;6.80;99.90;;;;;;4996956;28;20551;-83
2021/12/28 07:36:42;;;;;;;42.60;16.10;;;6.80;99.90;;;;;;4979271;28;20074;-85
2021/12/28 07:39:08;;;;;;;40.50;16.45;;;6.80;99.90;;;;;;4979069;28;20081;-85
2021/12/28 07:41:34;;;;;;;43.60;16.25;;;6.80;99.90;;;;;;4997222;28;20083;-84
2021/12/28 07:44:00;;;;;;;43.90;17.45;;;6.80;99.90;;;;;;4996922;28;20121;-84
2021/12/28 07:46:26;;;;;;;38.90;15.07;;;6.70;99.90;;;;;;4979600;28;20054;-83
2021/12/28 07:48:52;;;;;;;44.67;16.73;;;6.80;99.90;;;;;;4979011;28;20048;-84
2021/12/28 07:51:18;;;;;;;40.20;15.52;;;6.80;99.90;;;;;;4996641;28;20042;-85
2021/12/28 07:53:44;;;;;;;51.15;16.95;;;6.80;99.90;;;;;;4979339;28;20092;-86
2021/12/28 07:56:10;;;;;;;44.83;17.73;;;6.80;99.90;;;;;;4979066;28;20427;-86
2021/12/28 07:58:35;;;;;;;40.75;17.60;;;6.80;99.90;;;;;;4962600;28;20483;-83
2021/12/28 08:01:01;;;;;;;54.75;17.95;;;6.80;99.90;;;;;;4978478;28;20057;-85
2021/12/28 08:03:26;;;;;;;45.40;18.55;;;6.90;99.90;;;;;;4978584;28;20093;-85
2021/12/28 08:05:53;;;;;;;56.67;17.60;;;6.90;99.90;;;;;;4979436;28;20062;-85
2021/12/28 08:08:19;;;;;;;52.28;17.70;;;6.90;99.90;;;;;;4995001;28;20555;-84
2021/12/28 08:10:45;;;;;;;42.58;16.55;;;6.90;99.90;;;;;;4996532;28;20073;-84
2021/12/28 08:13:11;;;;;;;43.38;17.80;;;6.90;99.90;;;;;;4996488;28;20042;-86
2021/12/28 08:15:37;;;;;;;52.08;17.10;;;7.00;99.90;;;;;;4978996;28;20456;-83
2021/12/28 08:18:04;;;;;;;39.75;16.52;;;7.00;99.90;;;;;;4996158;28;20117;-86
2021/12/28 08:20:30;;;;;;;42.95;16.45;;;7.00;99.90;;;;;;4994876;28;20034;-87
2021/12/28 08:22:57;;;;;;;48.03;17.65;;;6.90;99.90;;;;;;4996491;28;20440;-85
2021/12/28 08:25:23;;;;;;;41.78;17.05;;;6.90;99.90;;;;;;4996003;28;20122;-86
2021/12/28 08:27:50;;;;;;;46.20;16.83;;;7.00;99.90;;;;;;4978808;28;20398;-84
2021/12/28 08:30:17;;;;;;;47.78;16.67;;;6.90;99.90;;;;;;4996054;28;20038;-85
2021/12/28 08:32:43;;;;;;;39.17;17.45;;;6.90;99.90;;;;;;4978413;28;20095;-82
2021/12/28 08:35:10;;;;;;;49.10;17.05;;;6.90;99.90;;;;;;4978539;28;20046;-84
2021/12/28 08:37:35;;;;;;;45.90;16.45;;;6.90;99.90;;;;;;4962076;28;20050;-87
2021/12/28 08:40:01;;;;;;;49.17;17.23;;;6.90;99.90;;;;;;4978868;28;20129;-84
2021/12/28 08:42:27;;;;;;;42.75;15.60;;;6.90;99.90;;;;;;4978997;28;20396;-84
2021/12/28 08:44:53;;;;;;;52.60;16.67;;;6.90;99.90;;;;;;4978048;28;20038;-85
2021/12/28 08:47:22;;;;;;;49.65;17.35;;;6.90;99.90;;;;;;4977347;28;20510;-86
2021/12/28 08:49:48;;;;;;;49.72;15.57;;;6.90;99.90;;;;;;4995490;28;20073;-85
2021/12/28 08:52:13;;;;;;;48.13;16.42;;;7.00;99.90;;;;;;4995010;28;20548;-84
2021/12/28 08:54:39;;;;;;;38.45;15.52;;;7.00;99.90;;;;;;4961602;28;20054;-86
2021/12/28 08:57:04;;;;;;;51.85;17.10;;;7.00;99.90;;;;;;4961937;28;20053;-87
2021/12/28 08:59:46;;;;;;;46.33;16.80;;;7.00;99.90;;;;;;4961534;28;20065;-86
2021/12/28 09:02:12;;;;;;;49.78;16.13;;;7.10;99.90;;;;;;4994423;28;20429;-86
2021/12/28 09:04:42;;;;;;;44.97;16.80;;;7.10;99.90;;;;;;4977716;28;20041;-84
2021/12/28 09:07:11;;;;;;;44.38;17.48;;;7.20;99.90;;;;;;4977842;28;20432;-84
2021/12/28 09:09:37;;;;;;;40.17;17.48;;;7.20;99.90;;;;;;4961077;28;20051;-84
2021/12/28 09:12:04;;;;;;;52.88;18.80;;;7.20;99.90;;;;;;4976787;28;20044;-86
2021/12/28 09:14:29;;;;;;;49.95;18.23;;;7.30;99.90;;;;;;4961229;28;20519;-85
2021/12/28 09:16:55;;;;;;;55.08;19.13;;;7.30;99.90;;;;;;4977776;28;20050;-86
2021/12/28 09:19:21;;;;;;;52.33;18.08;;;7.40;99.90;;;;;;4977703;28;20074;-84
2021/12/28 09:21:46;;;;;;;54.42;18.50;;;7.40;99.90;;;;;;4976954;28;20046;-86
2021/12/28 09:24:12;;;;;;;48.70;20.10;;;7.40;99.90;;;;;;4977398;28;20506;-84
2021/12/28 09:26:40;;;;;;;47.58;20.05;;;7.40;99.90;;;;;;4977263;28;20134;-84
2021/12/28 09:29:05;;;;;;;56.55;19.50;;;7.40;99.90;;;;;;4960723;28;20044;-85
2021/12/28 09:31:31;;;;;;;45.78;19.65;;;7.50;99.90;;;;;;4976915;28;20049;-86
2021/12/28 09:33:56;;;;;;;52.60;21.70;;;7.50;99.90;;;;;;4976583;28;20049;-85
2021/12/28 09:36:22;;;;;;;58.45;20.83;;;7.50;99.90;;;;;;4976788;28;20200;-84
2021/12/28 09:38:48;;;;;;;50.10;20.88;;;7.50;99.90;;;;;;4960685;28;20042;-83
2021/12/28 09:41:15;;;;;;;54.83;21.08;;;7.50;99.90;;;;;;4976745;28;20049;-84
2021/12/28 09:43:41;;;;;;;46.63;20.90;;;7.50;99.90;;;;;;4976820;28;20038;-82
2021/12/28 09:46:07;;;;;;;56.13;22.85;;;7.60;99.90;;;;;;4976576;28;20034;-85
2021/12/28 09:48:34;;;;;;;58.28;23.15;;;7.60;99.90;;;;;;4960420;28;20043;-85
2021/12/28 09:51:00;;;;;;;52.83;22.25;;;7.60;99.90;;;;;;4976615;28;20460;-87
2021/12/28 09:53:26;;;;;;;59.85;22.85;;;7.60;99.90;;;;;;4960421;28;20042;-83
2021/12/28 09:55:52;;;;;;;65.93;22.20;;;7.60;99.90;;;;;;4976424;28;20129;-85
2021/12/28 09:58:18;;;;;;;60.65;23.25;;;7.60;99.90;;;;;;4976251;28;20128;-83
2021/12/28 10:00:43;;;;;;;49.13;22.58;;;7.60;99.90;;;;;;4976554;28;20085;-84
2021/12/28 10:03:09;;;;;;;64.43;24.08;;;7.60;99.90;;;;;;4976268;28;20084;-84
2021/12/28 10:05:35;;;;;;;49.78;23.33;;;7.60;99.90;;;;;;4976772;28;20038;-85
2021/12/28 10:08:06;;;;;;;59.17;23.25;;;7.60;99.90;;;;;;4992607;28;20038;-86
2021/12/28 10:10:37;;;;;;;59.63;24.23;;;7.70;99.90;;;;;;4976322;28;20078;-84
2021/12/28 10:13:06;;;;;;;53.67;23.75;;;7.70;99.90;;;;;;4976338;28;20485;-86
2021/12/28 10:15:35;;;;;;;54.53;23.08;;;7.70;99.90;;;;;;4976403;28;20099;-84
2021/12/28 10:18:11;;;;;;;51.10;24.42;;;7.70;99.90;;;;;;4976435;28;20054;-84
2021/12/28 10:20:43;;;;;;;55.97;23.38;;;7.70;99.90;;;;;;4976218;28;20440;-86
2021/12/28 10:23:18;;;;;;;48.63;22.85;;;7.80;99.90;;;;;;4976852;28;20046;-87
2021/12/28 10:25:48;;;;;;;51.58;23.65;;;7.80;99.90;;;;;;4976623;28;20045;-87
2021/12/28 10:28:19;;;;;;;44.95;22.27;;;7.80;99.90;;;;;;4992287;28;20102;-88
2021/12/28 10:30:47;;;;;;;48.03;23.00;;;7.90;99.90;;;;;;4975895;28;20054;-85
2021/12/28 10:33:19;;;;;;;50.42;23.73;;;7.90;99.90;;;;;;4960661;28;20049;-88
2021/12/28 10:35:50;;;;;;;49.17;22.65;;;7.90;99.90;;;;;;4976052;28;20050;-84
2021/12/28 10:38:26;;;;;;;42.97;21.88;;;8.00;99.90;;;;;;4960481;28;20046;-88
2021/12/28 10:40:57;;;;;;;51.38;22.83;;;8.00;99.90;;;;;;4976183;28;20046;-88
2021/12/28 10:43:25;;;;;;;51.10;22.77;;;8.10;99.90;;;;;;4976724;28;20093;-86
2021/12/28 10:45:59;;;;;;;49.33;22.90;;;8.10;99.90;;;;;;4976223;28;20042;-84
2021/12/28 10:48:28;;;;;;;52.17;23.67;;;8.10;99.90;;;;;;4976192;28;20108;-86
2021/12/28 10:51:04;;;;;;;41.90;21.70;;;8.10;99.90;;;;;;4993825;28;20044;-87
2021/12/28 10:53:43;;;;;;;45.85;23.17;;;8.10;99.90;;;;;;4960141;28;20133;-84
2021/12/28 10:56:11;;;;;;;42.45;21.08;;;8.20;99.90;;;;;;4976288;28;20046;-86
2021/12/28 10:58:41;;;;;;;45.95;20.52;;;8.20;99.90;;;;;;4975870;28;20050;-87
2021/12/28 11:01:25;;;;;;;44.63;21.30;;;8.20;99.90;;;;;;4976023;28;20081;-85
2021/12/28 11:03:57;;;;;;;41.75;21.33;;;8.20;99.90;;;;;;4959827;28;20087;-83
2021/12/28 11:06:29;;;;;;;32.83;18.20;;;8.20;99.90;;;;;;4976385;28;20480;-87
2021/12/28 11:09:13;;;;;;;38.95;18.83;;;8.20;99.90;;;;;;4976429;28;20056;-88
2021/12/28 11:11:40;;;;;;;33.65;18.67;;;8.30;99.90;;;;;;4976290;28;20154;-85
2021/12/28 11:14:12;;;;;;;32.58;17.13;;;8.30;99.90;;;;;;4960466;28;20110;-85
2021/12/28 11:16:39;;;;;;;33.40;16.70;;;8.30;99.90;;;;;;4993611;28;20039;-87
2021/12/28 11:19:08;;;;;;;37.70;18.30;;;8.30;99.90;;;;;;4977818;28;20447;-84
2021/12/28 11:21:39;;;;;;;35.85;17.27;;;8.30;99.90;;;;;;4979366;28;20539;-84
2021/12/28 11:24:10;;;;;;;31.95;16.83;;;8.30;99.90;;;;;;4984905;28;20110;-84
2021/12/28 11:26:47;;;;;;;27.25;15.02;;;8.40;99.90;;;;;;5005216;28;20547;-88
2021/12/28 11:29:17;;;;;;;23.38;14.10;;;8.40;99.90;;;;;;4988880;28;20041;-86
2021/12/28 11:31:44;;;;;;;20.95;12.60;;;8.40;99.90;;;;;;4984959;28;20053;-87
2021/12/28 11:34:18;;;;;;;21.02;13.68;;;8.40;99.90;;;;;;4961777;28;20510;-83
2021/12/28 11:36:47;;;;;;;19.75;12.50;;;8.40;99.90;;;;;;4979378;28;20552;-84
2021/12/28 11:39:16;;;;;;;17.17;10.63;;;8.50;99.90;;;;;;4979495;28;20042;-85
2021/12/28 11:41:43;;;;;;;19.98;11.65;;;8.50;99.90;;;;;;4979582;28;20046;-84
2021/12/28 11:44:09;;;;;;;22.20;11.60;;;8.50;99.90;;;;;;4979395;28;20129;-84
2021/12/28 11:46:35;;;;;;;22.10;11.13;;;8.50;99.90;;;;;;4979705;28;20527;-88
2021/12/28 11:49:01;;;;;;;16.70;10.45;;;8.60;99.90;;;;;;4963046;28;20077;-85
2021/12/28 11:51:27;;;;;;;19.38;10.60;;;8.60;99.90;;;;;;4996736;28;20039;-85
2021/12/28 11:53:55;;;;;;;19.15;10.23;;;8.60;99.90;;;;;;4979280;28;20046;-87
2021/12/28 11:56:26;;;;;;;16.60;10.18;;;8.60;99.90;;;;;;4979191;28;20534;-88
2021/12/28 11:59:00;;;;;;;18.38;10.88;;;8.70;99.90;;;;;;4978772;28;20453;-84
2021/12/28 12:01:40;;;;;;;18.33;10.10;;;8.70;99.90;;;;;;4979299;28;20046;-86
2021/12/28 12:04:31;;;;;;;17.48;9.25;;;8.70;99.90;;;;;;4978762;28;20401;-84
2021/12/28 12:07:16;;;;;;;15.05;9.55;;;8.70;99.90;;;;;;4979229;28;20046;-85
2021/12/28 12:09:54;;;;;;;15.70;9.35;;;8.70;99.90;;;;;;4978543;28;20089;-86
2021/12/28 12:12:29;;;;;;;15.88;9.40;;;8.70;99.90;;;;;;4978584;28;20038;-84
2021/12/28 12:14:58;;;;;;;15.80;10.13;;;8.70;99.90;;;;;;4979059;28;20106;-86
2021/12/28 12:17:42;;;;;;;17.27;10.13;;;8.70;99.90;;;;;;4978987;28;20393;-87
2021/12/28 12:20:21;;;;;;;19.92;9.93;;;8.80;99.90;;;;;;4978411;28;20109;-85
2021/12/28 12:22:48;;;;;;;22.40;10.70;;;8.70;99.90;;;;;;4962511;28;20043;-89
2021/12/28 12:25:20;;;;;;;17.02;10.20;;;8.70;99.90;;;;;;4978371;28;20046;-86
2021/12/28 12:27:51;;;;;;;16.75;10.55;;;8.80;99.90;;;;;;4978226;28;20046;-84
2021/12/28 12:30:17;;;;;;;17.42;10.40;;;8.80;99.90;;;;;;4978742;28;20046;-88
2021/12/28 12:33:02;;;;;;;17.75;10.63;;;8.80;99.90;;;;;;4978232;28;20067;-84
2021/12/28 12:35:35;;;;;;;21.60;10.77;;;8.80;99.90;;;;;;4978131;28;20097;-89
2021/12/28 12:38:27;;;;;;;16.58;10.05;;;8.80;99.90;;;;;;4962072;28;20046;-88
2021/12/28 12:41:04;;;;;;;18.17;10.27;;;8.80;99.90;;;;;;4977595;28;20042;-84
2021/12/28 12:43:36;;;;;;;16.85;10.18;;;8.80;99.90;;;;;;4977676;28;20095;-88
2021/12/28 12:46:05;;;;;;;18.77;10.52;;;8.80;99.90;;;;;;4976776;28;20374;-86
2021/12/28 12:48:36;;;;;;;19.27;10.02;;;8.80;99.90;;;;;;4978028;28;20038;-84
2021/12/28 12:51:27;;;;;;;20.10;10.40;;;8.90;99.90;;;;;;4961855;28;20085;-88
2021/12/28 12:54:01;;;;;;;13.80;8.85;;;8.90;99.90;;;;;;4978141;28;20064;-84
2021/12/28 12:56:37;;;;;;;17.70;10.43;;;8.90;99.90;;;;;;4961630;28;20042;-86
2021/12/28 12:59:26;;;;;;;15.85;9.68;;;8.90;99.90;;;;;;4977926;28;20042;-86
2021/12/28 13:01:51;;;;;;;16.77;10.25;;;9.00;99.90;;;;;;4977342;28;20054;-86
2021/12/28 13:04:26;;;;;;;16.05;10.10;;;9.00;99.90;;;;;;4978004;28;20101;-90
2021/12/28 13:07:19;;;;;;;15.68;10.05;;;9.00;99.90;;;;;;4978175;28;20373;-86
2021/12/28 13:09:57;;;;;;;15.05;9.35;;;9.00;99.90;;;;;;4995286;28;20053;-87
2021/12/28 13:12:24;;;;;;;16.73;10.57;;;9.00;99.90;;;;;;4977763;28;20069;-85
2021/12/28 13:14:50;;;;;;;17.05;10.85;;;9.00;99.90;;;;;;4978457;28;20050;-87
2021/12/28 13:17:20;;;;;;;18.85;10.63;;;9.00;99.90;;;;;;4961416;28;20101;-88
2021/12/28 13:20:08;;;;;;;16.70;9.93;;;9.00;99.90;;;;;;4995796;28;20043;-85
2021/12/28 13:22:41;;;;;;;18.27;9.88;;;9.00;99.90;;;;;;4977599;28;20159;-84
2021/12/28 13:25:11;;;;;;;14.90;9.63;;;9.00;99.90;;;;;;4977303;28;20035;-87
2021/12/28 13:27:40;;;;;;;15.95;9.52;;;9.00;99.90;;;;;;4961073;28;20034;-86
2021/12/28 13:30:11;;;;;;;18.90;10.43;;;9.10;99.90;;;;;;4977343;28;20046;-86
2021/12/28 13:32:41;;;;;;;14.88;9.73;;;9.00;99.90;;;;;;4977342;28;20488;-89
2021/12/28 13:35:17;;;;;;;14.60;9.15;;;9.00;99.90;;;;;;4977203;28;20050;-90
2021/12/28 13:38:00;;;;;;;16.85;9.85;;;9.10;99.90;;;;;;4977348;28;20507;-84
2021/12/28 13:40:38;;;;;;;16.23;9.70;;;9.10;99.90;;;;;;4977778;28;20053;-88
2021/12/28 13:43:13;;;;;;;8.85;6.10;;;9.00;99.90;;;;;;4961179;28;20053;-84
2021/12/28 13:45:51;;;;;;;8.60;3.95;;;9.10;99.90;;;;;;4995150;28;20101;-88
2021/12/28 13:48:22;;;;;;;6.72;3.40;;;9.10;99.90;;;;;;4977193;28;20369;-86
2021/12/28 13:50:55;;;;;;;4.88;2.70;;;9.10;99.90;;;;;;4960696;28;20083;-84
2021/12/28 13:53:23;;;;;;;5.93;2.47;;;9.00;99.90;;;;;;4977068;28;20034;-86
2021/12/28 13:55:59;;;;;;;7.30;2.85;;;8.90;99.90;;;;;;4994668;28;20034;-87
2021/12/28 13:58:31;;;;;;;12.30;3.88;;;8.90;99.90;;;;;;4977105;28;20429;-85
2021/12/28 14:01:26;;;;;;;11.85;4.15;;;8.80;99.90;;;;;;4976777;28;20046;-86
2021/12/28 14:04:03;;;;;;;9.63;3.33;;;8.80;99.90;;;;;;4975993;28;20189;-83
2021/12/28 14:06:31;;;;;;;14.77;4.53;;;8.70;99.90;;;;;;4977092;28;20061;-90
2021/12/28 14:09:01;;;;;;;12.55;5.25;;;8.70;99.90;;;;;;4976804;28;20034;-87
2021/12/28 14:11:45;;;;;;;12.02;4.38;;;8.70;99.90;;;;;;4976743;28;20185;-87
2021/12/28 14:14:32;;;;;;;12.02;4.15;;;8.70;99.90;;;;;;4977307;28;20461;-86
2021/12/28 14:17:14;;;;;;;11.57;3.05;;;8.60;99.90;;;;;;4977176;28;20042;-86
2021/12/28 14:19:42;;;;;;;13.93;2.83;;;8.60;99.90;;;;;;4976874;28;20050;-87
2021/12/28 14:22:12;;;;;;;20.23;2.95;;;8.60;99.90;;;;;;4976605;28;20068;-87
2021/12/28 14:24:41;;;;;;;10.23;2.35;;;8.50;99.90;;;;;;4993933;28;20046;-88
2021/12/28 14:27:07;;;;;;;12.45;2.70;;;8.60;99.90;;;;;;4976511;28;20049;-86
2021/12/28 14:29:33;;;;;;;16.08;2.55;;;8.50;99.90;;;;;;4977065;28;20404;-89
2021/12/28 14:32:00;;;;;;;14.70;2.70;;;8.50;99.90;;;;;;4977789;28;20038;-87
2021/12/28 14:34:46;;;;;;;15.70;3.20;;;8.50;99.90;;;;;;4976653;28;20140;-85
2021/12/28 14:37:15;;;;;;;12.10;2.75;;;8.50;99.90;;;;;;4960758;28;20057;-86
2021/12/28 14:39:53;;;;;;;17.45;3.88;;;8.50;99.90;;;;;;4976353;28;20129;-89
2021/12/28 14:42:30;;;;;;;14.70;2.85;;;8.50;99.90;;;;;;4977035;28;20100;-86
2021/12/28 14:45:05;;;;;;;13.80;2.30;;;8.40;99.90;;;;;;4960771;28;20076;-86
2021/12/28 14:47:32;;;;;;;16.33;2.78;;;8.40;99.90;;;;;;4976924;28;20102;-89
2021/12/28 14:50:24;;;;;;;19.00;2.75;;;8.40;99.90;;;;;;4976705;28;20042;-85
2021/12/28 14:52:55;;;;;;;18.42;2.83;;;8.40;99.90;;;;;;4994872;28;20035;-88
2021/12/28 14:55:32;;;;;;;22.60;2.53;;;8.40;99.90;;;;;;4994885;28;20108;-88
2021/12/28 14:58:05;;;;;;;15.65;2.72;;;8.30;99.90;;;;;;4976756;28;20046;-86
2021/12/28 15:00:33;;;;;;;25.83;4.43;;;8.30;99.90;;;;;;4976234;28;20042;-86
2021/12/28 15:03:01;;;;;;;24.17;3.25;;;8.30;99.90;;;;;;4977009;28;20074;-85
2021/12/28 15:05:29;;;;;;;23.35;3.17;;;8.30;99.90;;;;;;4960267;28;20046;-86
2021/12/28 15:08:05;;;;;;;19.98;3.47;;;8.30;99.90;;;;;;4976705;28;20039;-89
2021/12/28 15:10:32;;;;;;;23.00;3.40;;;8.30;99.90;;;;;;4998091;28;20074;-85
2021/12/28 15:13:01;;;;;;;30.10;4.32;;;8.30;99.90;;;;;;4996479;28;20039;-86
2021/12/28 15:15:29;;;;;;;20.38;3.25;;;8.30;99.90;;;;;;4980326;28;20042;-85
2021/12/28 15:17:56;;;;;;;25.77;3.78;;;8.30;99.90;;;;;;4980452;28;20053;-87
2021/12/28 15:20:23;;;;;;;21.70;3.92;;;8.30;99.90;;;;;;4983127;28;20065;-85
2021/12/28 15:22:48;;;;;;;21.42;4.38;;;8.30;99.90;;;;;;4988089;28;20057;-88
2021/12/28 15:25:16;;;;;;;22.00;4.03;;;8.20;99.90;;;;;;4995229;28;20038;-87
2021/12/28 15:27:43;;;;;;;28.75;5.10;;;8.20;99.90;;;;;;4986173;28;20046;-85
2021/12/28 15:30:13;;;;;;;30.40;5.72;;;8.20;99.90;;;;;;4983156;28;20042;-87
2021/12/28 15:32:39;;;;;;;27.42;4.28;;;8.20;99.90;;;;;;4981457;28;20137;-88
2021/12/28 15:35:05;;;;;;;22.85;3.92;;;8.20;99.90;;;;;;4964361;28;20172;-86
2021/12/28 15:37:31;;;;;;;28.52;4.35;;;8.20;99.90;;;;;;4980348;28;20047;-88
2021/12/28 15:39:57;;;;;;;29.25;4.40;;;8.20;99.90;;;;;;4980462;28;20051;-86
2021/12/28 15:42:23;;;;;;;28.48;3.60;;;8.20;99.90;;;;;;4965156;28;20045;-86
2021/12/28 15:44:48;;;;;;;29.13;4.07;;;8.20;99.90;;;;;;4979952;28;20045;-86
2021/12/28 15:47:14;;;;;;;29.20;4.22;;;8.20;99.90;;;;;;4979294;28;20492;-88
2021/12/28 15:49:39;;;;;;;38.85;4.65;;;8.10;99.90;;;;;;4979803;28;20114;-88
2021/12/28 15:52:05;;;;;;;27.80;3.67;;;8.10;99.90;;;;;;4996978;28;20035;-87
2021/12/28 15:54:31;;;;;;;36.33;5.15;;;8.10;99.90;;;;;;4979301;28;20042;-89
2021/12/28 15:56:56;;;;;;;30.23;4.05;;;8.00;99.90;;;;;;4979200;28;20062;-87
2021/12/28 15:59:22;;;;;;;24.80;4.38;;;8.00;99.90;;;;;;4996983;28;20038;-86
2021/12/28 16:01:48;;;;;;;34.22;5.95;;;8.00;99.90;;;;;;4978726;28;20462;-86
2021/12/28 16:04:14;;;;;;;32.92;4.82;;;8.00;99.90;;;;;;4978855;28;20037;-87
2021/12/28 16:06:39;;;;;;;25.27;3.60;;;8.00;99.90;;;;;;4979175;28;20615;-85
2021/12/28 16:09:06;;;;;;;25.77;3.33;;;8.00;99.90;;;;;;4978374;28;20034;-87
2021/12/28 16:11:32;;;;;;;28.75;4.35;;;8.00;99.90;;;;;;4979161;28;20034;-86
2021/12/28 16:13:59;;;;;;;32.70;4.45;;;7.90;99.90;;;;;;4962780;28;20049;-86
2021/12/28 16:16:26;;;;;;;32.15;4.00;;;7.90;99.90;;;;;;4979054;28;20069;-88
2021/12/28 16:18:51;;;;;;;27.15;4.25;;;7.80;99.90;;;;;;4996279;28;20038;-88
2021/12/28 16:21:20;;;;;;;29.05;4.35;;;7.80;99.90;;;;;;4978268;28;20455;-86
2021/12/28 16:23:46;;;;;;;32.83;6.65;;;7.80;99.90;;;;;;4978839;28;20046;-88
2021/12/28 16:26:16;;;;;;;27.38;4.45;;;7.70;99.90;;;;;;4978113;28;20042;-85
2021/12/28 16:28:43;;;;;;;28.38;4.15;;;7.70;99.90;;;;;;4978182;28;20034;-87
2021/12/28 16:31:08;;;;;;;28.85;3.78;;;7.70;99.90;;;;;;4978278;28;20038;-87
2021/12/28 16:33:35;;;;;;;27.75;4.88;;;7.70;99.90;;;;;;4962482;28;20038;-87
2021/12/28 16:36:05;;;;;;;23.15;4.00;;;7.70;99.90;;;;;;4978856;28;20073;-85
2021/12/28 16:38:33;;;;;;;33.72;3.95;;;7.70;99.90;;;;;;4977871;28;20089;-86
2021/12/28 16:40:59;;;;;;;21.67;4.95;;;7.60;99.90;;;;;;4962237;28;20455;-81
2021/12/28 16:43:24;;;;;;;23.27;4.00;;;7.60;99.90;;;;;;4978521;28;20038;-88
2021/12/28 16:45:51;;;;;;;35.17;6.10;;;7.60;99.90;;;;;;4962053;28;20485;-81
2021/12/28 16:48:16;;;;;;;29.23;5.25;;;7.60;99.90;;;;;;4961650;28;20046;-87
2021/12/28 16:50:42;;;;;;;29.02;4.60;;;7.60;99.90;;;;;;4995405;28;20034;-85
2021/12/28 16:53:09;;;;;;;31.40;4.57;;;7.50;99.90;;;;;;4995141;28;20031;-85